sensor_id;sensor_type;location;lat;lon;timestamp;P1;durP1;ratioP1;P2;durP2;ratioP2
29728;SDS011;20055;51.498;11.960;2023-03-01T00:02:06;26.63;;;13.18;;
29728;SDS011;20055;51.498;11.960;2023-03-01T00:04:32;28.77;;;13.27;;
29728;SDS011;20055;51.498;11.960;2023-03-01T00:07:01;22.98;;;12.50;;
29728;SDS011;20055;51.498;11.960;2023-03-01T00:09:27;30.05;;;13.88;;
29728;SDS011;20055;51.498;11.960;2023-03-01T00:11:54;36.20;;;14.32;;
29728;SDS011;20055;51.498;11.960;2023-03-01T00:14:20;32.42;;;14.02;;
29728;SDS011;20055;51.498;11.960;2023-03-01T00:16:47;29.55;;;13.65;;
29728;SDS011;20055;51.498;11.960;2023-03-01T00:19:15;27.20;;;13.73;;
29728;SDS011;20055;51.498;11.960;2023-03-01T00:21:42;30.85;;;14.43;;
29728;SDS011;20055;51.498;11.960;2023-03-01T00:24:08;31.80;;;15.10;;
29728;SDS011;20055;51.498;11.960;2023-03-01T00:26:36;35.28;;;13.95;;
29728;SDS011;20055;51.498;11.960;2023-03-01T00:29:02;24.58;;;12.82;;
29728;SDS011;20055;51.498;11.960;2023-03-01T00:31:30;25.08;;;12.40;;
29728;SDS011;20055;51.498;11.960;2023-03-01T00:34:01;28.63;;;13.35;;
29728;SDS011;20055;51.498;11.960;2023-03-01T00:36:29;32.97;;;12.18;;
29728;SDS011;20055;51.498;11.960;2023-03-01T00:38:56;38.08;;;14.30;;
29728;SDS011;20055;51.498;11.960;2023-03-01T00:41:23;34.22;;;15.43;;
29728;SDS011;20055;51.498;11.960;2023-03-01T00:43:52;31.60;;;14.52;;
29728;SDS011;20055;51.498;11.960;2023-03-01T00:46:20;35.38;;;15.38;;
29728;SDS011;20055;51.498;11.960;2023-03-01T00:48:47;38.15;;;14.10;;
29728;SDS011;20055;51.498;11.960;2023-03-01T00:51:18;37.70;;;15.63;;
29728;SDS011;20055;51.498;11.960;2023-03-01T00:53:45;40.42;;;14.88;;
29728;SDS011;20055;51.498;11.960;2023-03-01T00:56:13;35.55;;;16.08;;
29728;SDS011;20055;51.498;11.960;2023-03-01T00:58:40;34.72;;;14.45;;
29728;SDS011;20055;51.498;11.960;2023-03-01T01:01:11;38.42;;;15.25;;
29728;SDS011;20055;51.498;11.960;2023-03-01T01:03:52;28.70;;;14.75;;
29728;SDS011;20055;51.498;11.960;2023-03-01T01:06:20;36.03;;;16.38;;
29728;SDS011;20055;51.498;11.960;2023-03-01T01:08:47;29.10;;;14.68;;
29728;SDS011;20055;51.498;11.960;2023-03-01T01:11:15;33.70;;;15.95;;
29728;SDS011;20055;51.498;11.960;2023-03-01T01:13:43;32.38;;;15.32;;
29728;SDS011;20055;51.498;11.960;2023-03-01T01:16:10;34.00;;;16.25;;
29728;SDS011;20055;51.498;11.960;2023-03-01T01:18:36;34.28;;;15.75;;
29728;SDS011;20055;51.498;11.960;2023-03-01T01:21:04;35.22;;;16.95;;
29728;SDS011;20055;51.498;11.960;2023-03-01T01:23:31;33.63;;;15.13;;
29728;SDS011;20055;51.498;11.960;2023-03-01T01:26:02;31.63;;;15.05;;
29728;SDS011;20055;51.498;11.960;2023-03-01T01:28:29;35.90;;;16.45;;
29728;SDS011;20055;51.498;11.960;2023-03-01T01:30:55;34.83;;;15.57;;
29728;SDS011;20055;51.498;11.960;2023-03-01T01:33:22;33.65;;;16.50;;
29728;SDS011;20055;51.498;11.960;2023-03-01T01:35:49;36.53;;;17.02;;
29728;SDS011;20055;51.498;11.960;2023-03-01T01:38:16;38.00;;;15.00;;
29728;SDS011;20055;51.498;11.960;2023-03-01T01:40:43;31.45;;;16.27;;
29728;SDS011;20055;51.498;11.960;2023-03-01T01:45:55;42.75;;;16.98;;
29728;SDS011;20055;51.498;11.960;2023-03-01T01:48:23;35.90;;;16.15;;
29728;SDS011;20055;51.498;11.960;2023-03-01T01:50:54;32.97;;;15.80;;
29728;SDS011;20055;51.498;11.960;2023-03-01T01:53:21;31.40;;;14.18;;
29728;SDS011;20055;51.498;11.960;2023-03-01T01:55:51;32.63;;;15.15;;
29728;SDS011;20055;51.498;11.960;2023-03-01T01:58:18;30.65;;;15.15;;
29728;SDS011;20055;51.498;11.960;2023-03-01T02:00:46;32.30;;;15.23;;
29728;SDS011;20055;51.498;11.960;2023-03-01T02:03:17;37.90;;;15.25;;
29728;SDS011;20055;51.498;11.960;2023-03-01T02:05:46;35.28;;;16.35;;
29728;SDS011;20055;51.498;11.960;2023-03-01T02:08:14;32.55;;;15.25;;
29728;SDS011;20055;51.498;11.960;2023-03-01T02:10:42;31.40;;;14.50;;
29728;SDS011;20055;51.498;11.960;2023-03-01T02:13:10;34.83;;;16.90;;
29728;SDS011;20055;51.498;11.960;2023-03-01T02:15:37;32.28;;;15.77;;
29728;SDS011;20055;51.498;11.960;2023-03-01T02:18:04;29.15;;;15.57;;
29728;SDS011;20055;51.498;11.960;2023-03-01T02:20:49;43.10;;;16.42;;
29728;SDS011;20055;51.498;11.960;2023-03-01T02:23:17;31.73;;;14.05;;
29728;SDS011;20055;51.498;11.960;2023-03-01T02:25:52;23.17;;;13.32;;
29728;SDS011;20055;51.498;11.960;2023-03-01T02:30:51;34.03;;;16.60;;
29728;SDS011;20055;51.498;11.960;2023-03-01T02:33:38;26.35;;;14.88;;
29728;SDS011;20055;51.498;11.960;2023-03-01T02:36:09;38.53;;;15.73;;
29728;SDS011;20055;51.498;11.960;2023-03-01T02:38:39;36.30;;;15.57;;
29728;SDS011;20055;51.498;11.960;2023-03-01T02:41:06;31.40;;;15.43;;
29728;SDS011;20055;51.498;11.960;2023-03-01T02:43:33;33.85;;;16.00;;
29728;SDS011;20055;51.498;11.960;2023-03-01T02:46:06;37.33;;;16.95;;
29728;SDS011;20055;51.498;11.960;2023-03-01T02:48:44;32.40;;;15.38;;
29728;SDS011;20055;51.498;11.960;2023-03-01T02:54:03;32.72;;;15.10;;
29728;SDS011;20055;51.498;11.960;2023-03-01T02:56:32;35.10;;;15.38;;
29728;SDS011;20055;51.498;11.960;2023-03-01T02:58:59;29.02;;;15.63;;
29728;SDS011;20055;51.498;11.960;2023-03-01T03:01:27;41.35;;;15.88;;
29728;SDS011;20055;51.498;11.960;2023-03-01T03:04:06;34.88;;;14.35;;
29728;SDS011;20055;51.498;11.960;2023-03-01T03:06:33;31.95;;;16.77;;
29728;SDS011;20055;51.498;11.960;2023-03-01T03:09:00;26.13;;;12.68;;
29728;SDS011;20055;51.498;11.960;2023-03-01T03:11:27;32.88;;;13.88;;
29728;SDS011;20055;51.498;11.960;2023-03-01T03:13:54;34.00;;;15.77;;
29728;SDS011;20055;51.498;11.960;2023-03-01T03:16:21;31.85;;;15.00;;
29728;SDS011;20055;51.498;11.960;2023-03-01T03:18:48;33.40;;;14.38;;
29728;SDS011;20055;51.498;11.960;2023-03-01T03:21:14;28.77;;;14.02;;
29728;SDS011;20055;51.498;11.960;2023-03-01T03:23:42;33.20;;;15.43;;
29728;SDS011;20055;51.498;11.960;2023-03-01T03:26:08;35.65;;;14.75;;
29728;SDS011;20055;51.498;11.960;2023-03-01T03:28:38;30.17;;;13.93;;
29728;SDS011;20055;51.498;11.960;2023-03-01T03:31:06;31.60;;;15.93;;
29728;SDS011;20055;51.498;11.960;2023-03-01T03:33:33;32.55;;;14.95;;
29728;SDS011;20055;51.498;11.960;2023-03-01T03:35:59;34.30;;;14.05;;
29728;SDS011;20055;51.498;11.960;2023-03-01T03:38:26;34.28;;;15.95;;
29728;SDS011;20055;51.498;11.960;2023-03-01T03:41:06;38.35;;;15.18;;
29728;SDS011;20055;51.498;11.960;2023-03-01T03:43:34;33.78;;;13.85;;
29728;SDS011;20055;51.498;11.960;2023-03-01T03:46:01;34.65;;;15.23;;
29728;SDS011;20055;51.498;11.960;2023-03-01T03:48:38;31.23;;;14.77;;
29728;SDS011;20055;51.498;11.960;2023-03-01T03:51:05;34.65;;;14.98;;
29728;SDS011;20055;51.498;11.960;2023-03-01T03:53:32;32.90;;;15.23;;
29728;SDS011;20055;51.498;11.960;2023-03-01T03:55:58;36.25;;;16.13;;
29728;SDS011;20055;51.498;11.960;2023-03-01T03:58:25;35.67;;;15.48;;
29728;SDS011;20055;51.498;11.960;2023-03-01T04:00:53;25.13;;;14.55;;
29728;SDS011;20055;51.498;11.960;2023-03-01T04:03:21;33.70;;;15.43;;
29728;SDS011;20055;51.498;11.960;2023-03-01T04:05:49;29.33;;;15.27;;
29728;SDS011;20055;51.498;11.960;2023-03-01T04:08:19;32.72;;;14.80;;
29728;SDS011;20055;51.498;11.960;2023-03-01T04:10:47;30.90;;;15.27;;
29728;SDS011;20055;51.498;11.960;2023-03-01T04:13:16;31.92;;;15.40;;
29728;SDS011;20055;51.498;11.960;2023-03-01T04:15:45;33.05;;;14.88;;
29728;SDS011;20055;51.498;11.960;2023-03-01T04:18:13;33.83;;;15.20;;
29728;SDS011;20055;51.498;11.960;2023-03-01T04:20:40;33.65;;;14.73;;
29728;SDS011;20055;51.498;11.960;2023-03-01T04:23:07;36.03;;;14.90;;
29728;SDS011;20055;51.498;11.960;2023-03-01T04:25:54;32.85;;;14.68;;
29728;SDS011;20055;51.498;11.960;2023-03-01T04:30:47;34.65;;;14.57;;
29728;SDS011;20055;51.498;11.960;2023-03-01T04:33:14;37.55;;;15.85;;
29728;SDS011;20055;51.498;11.960;2023-03-01T04:35:40;30.40;;;15.25;;
29728;SDS011;20055;51.498;11.960;2023-03-01T04:38:07;41.30;;;16.63;;
29728;SDS011;20055;51.498;11.960;2023-03-01T04:40:34;39.38;;;17.50;;
29728;SDS011;20055;51.498;11.960;2023-03-01T04:43:02;46.85;;;16.80;;
29728;SDS011;20055;51.498;11.960;2023-03-01T04:45:28;36.72;;;18.13;;
29728;SDS011;20055;51.498;11.960;2023-03-01T04:47:55;42.78;;;17.38;;
29728;SDS011;20055;51.498;11.960;2023-03-01T04:50:23;37.95;;;17.75;;
29728;SDS011;20055;51.498;11.960;2023-03-01T04:52:51;41.60;;;17.73;;
29728;SDS011;20055;51.498;11.960;2023-03-01T04:55:18;44.10;;;16.60;;
29728;SDS011;20055;51.498;11.960;2023-03-01T04:57:45;36.10;;;15.55;;
29728;SDS011;20055;51.498;11.960;2023-03-01T05:00:12;34.70;;;16.13;;
29728;SDS011;20055;51.498;11.960;2023-03-01T05:07:44;34.00;;;15.07;;
29728;SDS011;20055;51.498;11.960;2023-03-01T05:10:11;40.88;;;15.32;;
29728;SDS011;20055;51.498;11.960;2023-03-01T05:14:56;31.13;;;14.07;;
29728;SDS011;20055;51.498;11.960;2023-03-01T05:17:24;35.25;;;16.08;;
29728;SDS011;20055;51.498;11.960;2023-03-01T05:19:51;38.60;;;15.63;;
29728;SDS011;20055;51.498;11.960;2023-03-01T05:22:17;35.30;;;16.05;;
29728;SDS011;20055;51.498;11.960;2023-03-01T05:24:44;38.40;;;15.52;;
29728;SDS011;20055;51.498;11.960;2023-03-01T05:27:12;36.05;;;16.13;;
29728;SDS011;20055;51.498;11.960;2023-03-01T05:29:38;41.53;;;15.23;;
29728;SDS011;20055;51.498;11.960;2023-03-01T05:32:05;37.92;;;15.93;;
29728;SDS011;20055;51.498;11.960;2023-03-01T05:34:32;34.95;;;15.85;;
29728;SDS011;20055;51.498;11.960;2023-03-01T05:36:59;34.15;;;16.02;;
29728;SDS011;20055;51.498;11.960;2023-03-01T05:39:27;36.10;;;17.15;;
29728;SDS011;20055;51.498;11.960;2023-03-01T05:41:57;40.50;;;16.75;;
29728;SDS011;20055;51.498;11.960;2023-03-01T05:44:24;32.35;;;15.52;;
29728;SDS011;20055;51.498;11.960;2023-03-01T05:46:51;35.50;;;15.20;;
29728;SDS011;20055;51.498;11.960;2023-03-01T05:49:18;38.35;;;14.80;;
29728;SDS011;20055;51.498;11.960;2023-03-01T05:51:48;32.97;;;16.75;;
29728;SDS011;20055;51.498;11.960;2023-03-01T05:54:15;29.85;;;14.65;;
29728;SDS011;20055;51.498;11.960;2023-03-01T05:56:42;34.80;;;14.02;;
29728;SDS011;20055;51.498;11.960;2023-03-01T05:59:09;40.50;;;16.67;;
29728;SDS011;20055;51.498;11.960;2023-03-01T06:01:36;29.30;;;15.27;;
29728;SDS011;20055;51.498;11.960;2023-03-01T06:04:02;37.20;;;15.35;;
29728;SDS011;20055;51.498;11.960;2023-03-01T06:06:29;37.78;;;15.77;;
29728;SDS011;20055;51.498;11.960;2023-03-01T06:08:59;34.65;;;15.00;;
29728;SDS011;20055;51.498;11.960;2023-03-01T06:11:25;37.08;;;16.00;;
29728;SDS011;20055;51.498;11.960;2023-03-01T06:13:52;39.65;;;15.57;;
29728;SDS011;20055;51.498;11.960;2023-03-01T06:16:19;36.15;;;16.73;;
29728;SDS011;20055;51.498;11.960;2023-03-01T06:18:45;39.58;;;16.13;;
29728;SDS011;20055;51.498;11.960;2023-03-01T06:21:12;33.05;;;13.95;;
29728;SDS011;20055;51.498;11.960;2023-03-01T06:23:39;33.03;;;15.50;;
29728;SDS011;20055;51.498;11.960;2023-03-01T06:26:08;33.95;;;13.80;;
29728;SDS011;20055;51.498;11.960;2023-03-01T06:28:35;36.80;;;15.02;;
29728;SDS011;20055;51.498;11.960;2023-03-01T06:31:02;33.30;;;14.90;;
29728;SDS011;20055;51.498;11.960;2023-03-01T06:33:28;39.95;;;16.00;;
29728;SDS011;20055;51.498;11.960;2023-03-01T06:35:55;42.63;;;15.30;;
29728;SDS011;20055;51.498;11.960;2023-03-01T06:38:22;33.13;;;15.65;;
29728;SDS011;20055;51.498;11.960;2023-03-01T06:40:53;31.02;;;15.18;;
29728;SDS011;20055;51.498;11.960;2023-03-01T06:43:20;38.70;;;14.23;;
29728;SDS011;20055;51.498;11.960;2023-03-01T06:45:46;35.47;;;14.07;;
29728;SDS011;20055;51.498;11.960;2023-03-01T06:48:13;37.92;;;15.07;;
29728;SDS011;20055;51.498;11.960;2023-03-01T06:50:39;33.17;;;15.05;;
29728;SDS011;20055;51.498;11.960;2023-03-01T06:53:06;30.33;;;14.05;;
29728;SDS011;20055;51.498;11.960;2023-03-01T06:55:32;34.25;;;15.32;;
29728;SDS011;20055;51.498;11.960;2023-03-01T06:57:59;33.05;;;15.20;;
29728;SDS011;20055;51.498;11.960;2023-03-01T07:00:26;35.25;;;14.90;;
29728;SDS011;20055;51.498;11.960;2023-03-01T07:02:53;33.95;;;15.48;;
29728;SDS011;20055;51.498;11.960;2023-03-01T07:05:19;32.83;;;13.48;;
29728;SDS011;20055;51.498;11.960;2023-03-01T07:07:46;36.20;;;14.45;;
29728;SDS011;20055;51.498;11.960;2023-03-01T07:10:13;30.35;;;13.45;;
29728;SDS011;20055;51.498;11.960;2023-03-01T07:12:40;34.28;;;13.82;;
29728;SDS011;20055;51.498;11.960;2023-03-01T07:15:08;40.55;;;15.27;;
29728;SDS011;20055;51.498;11.960;2023-03-01T07:17:35;39.97;;;15.02;;
29728;SDS011;20055;51.498;11.960;2023-03-01T07:20:01;28.58;;;14.90;;
29728;SDS011;20055;51.498;11.960;2023-03-01T07:22:28;29.67;;;14.38;;
29728;SDS011;20055;51.498;11.960;2023-03-01T07:24:54;31.17;;;14.48;;
29728;SDS011;20055;51.498;11.960;2023-03-01T07:27:21;26.02;;;14.00;;
29728;SDS011;20055;51.498;11.960;2023-03-01T07:29:47;31.33;;;14.40;;
29728;SDS011;20055;51.498;11.960;2023-03-01T07:32:14;36.97;;;15.07;;
29728;SDS011;20055;51.498;11.960;2023-03-01T07:34:41;26.13;;;13.95;;
29728;SDS011;20055;51.498;11.960;2023-03-01T07:37:07;45.22;;;14.98;;
29728;SDS011;20055;51.498;11.960;2023-03-01T07:39:34;39.20;;;14.90;;
29728;SDS011;20055;51.498;11.960;2023-03-01T07:42:01;37.92;;;14.38;;
29728;SDS011;20055;51.498;11.960;2023-03-01T07:44:27;38.78;;;14.75;;
29728;SDS011;20055;51.498;11.960;2023-03-01T07:46:54;35.08;;;13.70;;
29728;SDS011;20055;51.498;11.960;2023-03-01T07:49:21;35.17;;;14.82;;
29728;SDS011;20055;51.498;11.960;2023-03-01T07:51:48;32.17;;;13.80;;
29728;SDS011;20055;51.498;11.960;2023-03-01T07:54:15;31.83;;;13.63;;
29728;SDS011;20055;51.498;11.960;2023-03-01T07:56:41;31.20;;;13.82;;
29728;SDS011;20055;51.498;11.960;2023-03-01T07:59:08;36.00;;;14.05;;
29728;SDS011;20055;51.498;11.960;2023-03-01T08:01:34;42.28;;;15.77;;
29728;SDS011;20055;51.498;11.960;2023-03-01T08:04:01;42.25;;;16.70;;
29728;SDS011;20055;51.498;11.960;2023-03-01T08:06:28;69.35;;;21.77;;
29728;SDS011;20055;51.498;11.960;2023-03-01T08:08:54;44.83;;;16.98;;
29728;SDS011;20055;51.498;11.960;2023-03-01T08:11:21;35.72;;;15.55;;
29728;SDS011;20055;51.498;11.960;2023-03-01T08:13:48;39.47;;;16.15;;
29728;SDS011;20055;51.498;11.960;2023-03-01T08:16:15;36.95;;;16.35;;
29728;SDS011;20055;51.498;11.960;2023-03-01T08:18:42;49.28;;;22.05;;
29728;SDS011;20055;51.498;11.960;2023-03-01T08:21:11;41.08;;;18.10;;
29728;SDS011;20055;51.498;11.960;2023-03-01T08:23:38;37.87;;;14.77;;
29728;SDS011;20055;51.498;11.960;2023-03-01T08:26:12;38.22;;;16.63;;
29728;SDS011;20055;51.498;11.960;2023-03-01T08:28:39;30.73;;;14.25;;
29728;SDS011;20055;51.498;11.960;2023-03-01T08:31:17;47.88;;;16.55;;
29728;SDS011;20055;51.498;11.960;2023-03-01T08:33:45;44.15;;;15.48;;
29728;SDS011;20055;51.498;11.960;2023-03-01T08:36:16;42.75;;;16.15;;
29728;SDS011;20055;51.498;11.960;2023-03-01T08:38:43;37.83;;;16.17;;
29728;SDS011;20055;51.498;11.960;2023-03-01T08:41:09;41.30;;;16.25;;
29728;SDS011;20055;51.498;11.960;2023-03-01T08:43:36;50.53;;;17.35;;
29728;SDS011;20055;51.498;11.960;2023-03-01T08:46:03;37.20;;;14.65;;
29728;SDS011;20055;51.498;11.960;2023-03-01T08:48:29;42.83;;;14.90;;
29728;SDS011;20055;51.498;11.960;2023-03-01T08:50:56;31.20;;;14.20;;
29728;SDS011;20055;51.498;11.960;2023-03-01T08:53:23;40.42;;;15.45;;
29728;SDS011;20055;51.498;11.960;2023-03-01T08:55:49;36.17;;;15.90;;
29728;SDS011;20055;51.498;11.960;2023-03-01T08:58:16;26.88;;;13.07;;
29728;SDS011;20055;51.498;11.960;2023-03-01T09:00:42;35.58;;;14.05;;
29728;SDS011;20055;51.498;11.960;2023-03-01T09:03:10;32.88;;;14.30;;
29728;SDS011;20055;51.498;11.960;2023-03-01T09:05:36;32.53;;;14.95;;
29728;SDS011;20055;51.498;11.960;2023-03-01T09:08:03;30.00;;;13.82;;
29728;SDS011;20055;51.498;11.960;2023-03-01T09:10:30;28.00;;;13.32;;
29728;SDS011;20055;51.498;11.960;2023-03-01T09:12:56;28.77;;;12.98;;
29728;SDS011;20055;51.498;11.960;2023-03-01T09:15:23;31.30;;;14.35;;
29728;SDS011;20055;51.498;11.960;2023-03-01T09:17:50;34.05;;;13.27;;
29728;SDS011;20055;51.498;11.960;2023-03-01T09:20:17;32.63;;;14.45;;
29728;SDS011;20055;51.498;11.960;2023-03-01T09:22:43;33.08;;;13.18;;
29728;SDS011;20055;51.498;11.960;2023-03-01T09:25:10;26.48;;;13.02;;
29728;SDS011;20055;51.498;11.960;2023-03-01T09:27:37;25.48;;;13.10;;
29728;SDS011;20055;51.498;11.960;2023-03-01T09:30:03;32.38;;;14.50;;
29728;SDS011;20055;51.498;11.960;2023-03-01T09:32:30;36.60;;;14.73;;
29728;SDS011;20055;51.498;11.960;2023-03-01T09:34:57;35.85;;;14.13;;
29728;SDS011;20055;51.498;11.960;2023-03-01T09:37:29;34.55;;;15.10;;
29728;SDS011;20055;51.498;11.960;2023-03-01T09:39:56;33.42;;;13.35;;
29728;SDS011;20055;51.498;11.960;2023-03-01T09:42:22;33.92;;;14.52;;
29728;SDS011;20055;51.498;11.960;2023-03-01T09:45:03;34.63;;;15.63;;
29728;SDS011;20055;51.498;11.960;2023-03-01T09:47:32;33.60;;;13.10;;
29728;SDS011;20055;51.498;11.960;2023-03-01T09:50:13;26.48;;;12.93;;
29728;SDS011;20055;51.498;11.960;2023-03-01T09:55:31;28.92;;;14.00;;
29728;SDS011;20055;51.498;11.960;2023-03-01T09:58:04;29.00;;;15.13;;
29728;SDS011;20055;51.498;11.960;2023-03-01T10:00:37;29.85;;;13.05;;
29728;SDS011;20055;51.498;11.960;2023-03-01T10:03:14;34.83;;;15.55;;
29728;SDS011;20055;51.498;11.960;2023-03-01T10:08:29;34.22;;;14.55;;
29728;SDS011;20055;51.498;11.960;2023-03-01T10:11:01;34.33;;;14.27;;
29728;SDS011;20055;51.498;11.960;2023-03-01T10:13:42;38.83;;;15.23;;
29728;SDS011;20055;51.498;11.960;2023-03-01T10:16:19;30.73;;;14.80;;
29728;SDS011;20055;51.498;11.960;2023-03-01T10:18:47;30.98;;;13.82;;
29728;SDS011;20055;51.498;11.960;2023-03-01T10:21:18;34.47;;;14.70;;
29728;SDS011;20055;51.498;11.960;2023-03-01T10:23:45;31.27;;;14.13;;
29728;SDS011;20055;51.498;11.960;2023-03-01T10:26:17;28.17;;;13.90;;
29728;SDS011;20055;51.498;11.960;2023-03-01T10:28:50;32.78;;;13.32;;
29728;SDS011;20055;51.498;11.960;2023-03-01T10:31:24;32.22;;;13.35;;
29728;SDS011;20055;51.498;11.960;2023-03-01T10:33:53;34.85;;;14.95;;
29728;SDS011;20055;51.498;11.960;2023-03-01T10:36:21;27.73;;;13.50;;
29728;SDS011;20055;51.498;11.960;2023-03-01T10:38:49;30.40;;;13.98;;
29728;SDS011;20055;51.498;11.960;2023-03-01T10:41:17;24.60;;;11.27;;
29728;SDS011;20055;51.498;11.960;2023-03-01T10:46:24;30.73;;;13.90;;
29728;SDS011;20055;51.498;11.960;2023-03-01T10:51:33;28.17;;;13.48;;
29728;SDS011;20055;51.498;11.960;2023-03-01T10:53:59;31.85;;;13.35;;
29728;SDS011;20055;51.498;11.960;2023-03-01T10:56:27;28.23;;;13.10;;
29728;SDS011;20055;51.498;11.960;2023-03-01T10:59:00;28.33;;;12.60;;
29728;SDS011;20055;51.498;11.960;2023-03-01T11:01:29;29.75;;;13.07;;
29728;SDS011;20055;51.498;11.960;2023-03-01T11:06:30;59.20;;;21.92;;
29728;SDS011;20055;51.498;11.960;2023-03-01T11:08:56;43.25;;;16.75;;
29728;SDS011;20055;51.498;11.960;2023-03-01T11:11:30;32.08;;;13.25;;
29728;SDS011;20055;51.498;11.960;2023-03-01T11:13:58;33.45;;;12.23;;
29728;SDS011;20055;51.498;11.960;2023-03-01T11:16:27;29.60;;;13.48;;
29728;SDS011;20055;51.498;11.960;2023-03-01T11:21:54;24.40;;;10.98;;
29728;SDS011;20055;51.498;11.960;2023-03-01T11:24:44;24.13;;;10.50;;
29728;SDS011;20055;51.498;11.960;2023-03-01T11:27:51;24.02;;;10.48;;
29728;SDS011;20055;51.498;11.960;2023-03-01T11:29:59;31.30;;;11.98;;
29728;SDS011;20055;51.498;11.960;2023-03-01T11:37:33;34.22;;;11.70;;
29728;SDS011;20055;51.498;11.960;2023-03-01T11:42:53;19.50;;;9.95;;
29728;SDS011;20055;51.498;11.960;2023-03-01T11:45:22;24.52;;;11.02;;
29728;SDS011;20055;51.498;11.960;2023-03-01T11:50:38;27.05;;;12.52;;
29728;SDS011;20055;51.498;11.960;2023-03-01T11:53:12;22.02;;;9.88;;
29728;SDS011;20055;51.498;11.960;2023-03-01T12:01:20;25.80;;;10.40;;
29728;SDS011;20055;51.498;11.960;2023-03-01T12:09:09;31.55;;;10.27;;
29728;SDS011;20055;51.498;11.960;2023-03-01T12:11:41;20.05;;;9.70;;
29728;SDS011;20055;51.498;11.960;2023-03-01T12:15:00;23.40;;;9.05;;
29728;SDS011;20055;51.498;11.960;2023-03-01T12:22:06;25.08;;;9.77;;
29728;SDS011;20055;51.498;11.960;2023-03-01T12:30:03;23.95;;;9.93;;
29728;SDS011;20055;51.498;11.960;2023-03-01T12:35:27;23.92;;;10.32;;
29728;SDS011;20055;51.498;11.960;2023-03-01T12:43:41;21.58;;;8.50;;
29728;SDS011;20055;51.498;11.960;2023-03-01T12:48:49;23.95;;;8.57;;
29728;SDS011;20055;51.498;11.960;2023-03-01T12:51:19;20.52;;;7.90;;
29728;SDS011;20055;51.498;11.960;2023-03-01T12:53:47;19.80;;;8.57;;
29728;SDS011;20055;51.498;11.960;2023-03-01T12:56:19;22.58;;;8.18;;
29728;SDS011;20055;51.498;11.960;2023-03-01T12:58:50;21.55;;;8.80;;
29728;SDS011;20055;51.498;11.960;2023-03-01T13:06:14;23.05;;;9.07;;
29728;SDS011;20055;51.498;11.960;2023-03-01T13:13:29;18.98;;;8.82;;
29728;SDS011;20055;51.498;11.960;2023-03-01T13:15:56;24.65;;;9.63;;
